WZZ3112 LIRN-LZIB
Flight info
| Callsign | WZZ3112 |
|---|---|
| Flight time | 1h 19m |
| Altitude | 39000 |
| Route | BEDPI DCT MOLUX DCT XOLTA DCT KOPRY DCT JOZEP/N0450F380 DCT PUCOG DCT BODZA DCT XOMBA |
| Aircraft | A20N/M-SDE1E2E3FGIJ1J4RWXY/LB1 |
Departure
| Time | 2026-05-07 19:19 |
|---|---|
| Airport | Naples International Airport (LIRN) |
Arrival
| Time | 2026-05-07 20:39 |
|---|---|
| Airport | M. R. Štefánik Airport (LZIB) |
| Time | Latitude | Longitude | Altitude | Speed | Heading |
|---|---|---|---|---|---|
| 2026-05-07 19:01 | 40.87831 | 14.28096 | 310 ft | 0 kts | 141° |
| 2026-05-07 19:10 | 40.87836 | 14.28090 | 310 ft | 1 kts | 141° |
| 2026-05-07 19:10 | 40.87842 | 14.28084 | 310 ft | 1 kts | 141° |
| 2026-05-07 19:10 | 40.87848 | 14.28078 | 309 ft | 1 kts | 141° |
| 2026-05-07 19:10 | 40.87854 | 14.28071 | 309 ft | 1 kts | 141° |
| 2026-05-07 19:11 | 40.87860 | 14.28065 | 309 ft | 1 kts | 141° |
| 2026-05-07 19:11 | 40.87866 | 14.28059 | 309 ft | 1 kts | 141° |
| 2026-05-07 19:11 | 40.87872 | 14.28053 | 309 ft | 1 kts | 140° |
| 2026-05-07 19:11 | 40.87878 | 14.28046 | 310 ft | 1 kts | 134° |
| 2026-05-07 19:12 | 40.87883 | 14.28039 | 310 ft | 1 kts | 127° |
| 2026-05-07 19:12 | 40.87888 | 14.28031 | 310 ft | 1 kts | 113° |
| 2026-05-07 19:12 | 40.87891 | 14.28021 | 311 ft | 1 kts | 94° |
| 2026-05-07 19:12 | 40.87891 | 14.28011 | 311 ft | 1 kts | 75° |
| 2026-05-07 19:13 | 40.87889 | 14.28002 | 312 ft | 1 kts | 57° |
| 2026-05-07 19:13 | 40.87888 | 14.28000 | 312 ft | 0 kts | 53° |
| 2026-05-07 19:13 | 40.87899 | 14.28020 | 310 ft | 6 kts | 53° |
| 2026-05-07 19:14 | 40.87940 | 14.28090 | 308 ft | 13 kts | 51° |
| 2026-05-07 19:14 | 40.88015 | 14.28167 | 304 ft | 13 kts | 354° |
| 2026-05-07 19:14 | 40.88038 | 14.28161 | 304 ft | 1 kts | 38° |
| 2026-05-07 19:14 | 40.88046 | 14.28188 | 304 ft | 7 kts | 64° |
| 2026-05-07 19:15 | 40.88066 | 14.28276 | 300 ft | 13 kts | 89° |
| 2026-05-07 19:15 | 40.88051 | 14.28422 | 297 ft | 19 kts | 95° |
| 2026-05-07 19:15 | 40.88045 | 14.28602 | 295 ft | 18 kts | 66° |
| 2026-05-07 19:15 | 40.88130 | 14.28753 | 286 ft | 23 kts | 52° |
| 2026-05-07 19:16 | 40.88237 | 14.28938 | 278 ft | 26 kts | 51° |
| 2026-05-07 19:16 | 40.88346 | 14.29128 | 271 ft | 23 kts | 53° |
| 2026-05-07 19:16 | 40.88455 | 14.29315 | 263 ft | 26 kts | 53° |
| 2026-05-07 19:16 | 40.88571 | 14.29516 | 255 ft | 29 kts | 53° |
| 2026-05-07 19:17 | 40.88683 | 14.29711 | 248 ft | 22 kts | 52° |
| 2026-05-07 19:17 | 40.88786 | 14.29890 | 241 ft | 27 kts | 52° |
| 2026-05-07 19:17 | 40.88889 | 14.30067 | 233 ft | 26 kts | 52° |
| 2026-05-07 19:17 | 40.88982 | 14.30232 | 227 ft | 15 kts | 53° |
| 2026-05-07 19:18 | 40.89054 | 14.30252 | 224 ft | 9 kts | 336° |
| 2026-05-07 19:18 | 40.89117 | 14.30197 | 224 ft | 11 kts | 317° |
| 2026-05-07 19:18 | 40.89111 | 14.30153 | 226 ft | 3 kts | 240° |
| 2026-05-07 19:18 | 40.89045 | 14.30011 | 233 ft | 51 kts | 236° |
| 2026-05-07 19:19 | 40.88728 | 14.29342 | 256 ft | 118 kts | 238° |
| 2026-05-07 19:19 | 40.88211 | 14.28232 | 437 ft | 153 kts | 241° |
| 2026-05-07 19:19 | 40.87831 | 14.27439 | 837 ft | 156 kts | 236° |
| 2026-05-07 19:19 | 40.86789 | 14.26006 | 1700 ft | 166 kts | 223° |
| 2026-05-07 19:20 | 40.86200 | 14.25336 | 2090 ft | 171 kts | 219° |
| 2026-05-07 19:20 | 40.85253 | 14.24285 | 2593 ft | 188 kts | 215° |
| 2026-05-07 19:20 | 40.83997 | 14.23627 | 3154 ft | 202 kts | 181° |
| 2026-05-07 19:20 | 40.82639 | 14.23933 | 3985 ft | 199 kts | 159° |
| 2026-05-07 19:21 | 40.81301 | 14.24477 | 4828 ft | 205 kts | 159° |
| 2026-05-07 19:21 | 40.79923 | 14.25043 | 5688 ft | 209 kts | 160° |
| 2026-05-07 19:21 | 40.78541 | 14.25607 | 6648 ft | 208 kts | 160° |
| 2026-05-07 19:21 | 40.77152 | 14.26171 | 7528 ft | 210 kts | 160° |
| 2026-05-07 19:22 | 40.75750 | 14.26739 | 8419 ft | 212 kts | 160° |
| 2026-05-07 19:22 | 40.74336 | 14.27310 | 9327 ft | 213 kts | 160° |
| 2026-05-07 19:22 | 40.72961 | 14.28037 | 10178 ft | 214 kts | 144° |
| 2026-05-07 19:22 | 40.71935 | 14.29464 | 10896 ft | 220 kts | 119° |
| 2026-05-07 19:23 | 40.71522 | 14.31437 | 11572 ft | 231 kts | 91° |
| 2026-05-07 19:23 | 40.71773 | 14.33582 | 12194 ft | 246 kts | 80° |
| 2026-05-07 19:23 | 40.72145 | 14.35872 | 12675 ft | 262 kts | 80° |
| 2026-05-07 19:23 | 40.72522 | 14.38249 | 13438 ft | 268 kts | 80° |
| 2026-05-07 19:24 | 40.72899 | 14.40689 | 14145 ft | 274 kts | 80° |
| 2026-05-07 19:24 | 40.73633 | 14.43006 | 14876 ft | 279 kts | 53° |
| 2026-05-07 19:24 | 40.75084 | 14.44706 | 15545 ft | 284 kts | 31° |
| 2026-05-07 19:24 | 40.76874 | 14.46004 | 15875 ft | 305 kts | 25° |
| 2026-05-07 19:25 | 40.78856 | 14.47280 | 16104 ft | 329 kts | 25° |
| 2026-05-07 19:25 | 40.80981 | 14.48659 | 16323 ft | 352 kts | 25° |
| 2026-05-07 19:25 | 40.83228 | 14.50170 | 16545 ft | 373 kts | 26° |
| 2026-05-07 19:25 | 40.85583 | 14.51801 | 16878 ft | 389 kts | 27° |
| 2026-05-07 19:26 | 40.87992 | 14.53494 | 17545 ft | 394 kts | 27° |
| 2026-05-07 19:26 | 40.90422 | 14.55213 | 18271 ft | 398 kts | 27° |
| 2026-05-07 19:26 | 40.92876 | 14.56953 | 18912 ft | 402 kts | 27° |
| 2026-05-07 19:26 | 40.95351 | 14.58709 | 19577 ft | 405 kts | 27° |
| 2026-05-07 19:27 | 40.97807 | 14.60452 | 20213 ft | 408 kts | 27° |
| 2026-05-07 19:27 | 41.00354 | 14.62260 | 20863 ft | 412 kts | 27° |
| 2026-05-07 19:27 | 41.02892 | 14.64063 | 21504 ft | 415 kts | 26° |
| 2026-05-07 19:27 | 41.05453 | 14.65881 | 22118 ft | 419 kts | 25° |
| 2026-05-07 19:28 | 41.08099 | 14.67474 | 22814 ft | 419 kts | 20° |
| 2026-05-07 19:28 | 41.10798 | 14.68972 | 23409 ft | 423 kts | 20° |
| 2026-05-07 19:28 | 41.13518 | 14.70491 | 23922 ft | 426 kts | 20° |
| 2026-05-07 19:28 | 41.16222 | 14.72005 | 24378 ft | 430 kts | 20° |
| 2026-05-07 19:29 | 41.18994 | 14.73558 | 24843 ft | 434 kts | 20° |
| 2026-05-07 19:29 | 41.21791 | 14.75128 | 25302 ft | 438 kts | 20° |
| 2026-05-07 19:29 | 41.24616 | 14.76717 | 25779 ft | 443 kts | 20° |
| 2026-05-07 19:29 | 41.27399 | 14.78520 | 26241 ft | 447 kts | 23° |
| 2026-05-07 19:30 | 41.30194 | 14.80379 | 26648 ft | 452 kts | 23° |
| 2026-05-07 19:30 | 41.33021 | 14.82248 | 27045 ft | 456 kts | 23° |
| 2026-05-07 19:30 | 41.35870 | 14.84122 | 27439 ft | 459 kts | 23° |
| 2026-05-07 19:30 | 41.38745 | 14.86011 | 27817 ft | 463 kts | 23° |
| 2026-05-07 19:31 | 41.41645 | 14.87919 | 28209 ft | 467 kts | 23° |
| 2026-05-07 19:31 | 41.44567 | 14.89845 | 28569 ft | 471 kts | 23° |
| 2026-05-07 19:31 | 41.47520 | 14.91795 | 28906 ft | 475 kts | 23° |
| 2026-05-07 19:31 | 41.50487 | 14.93759 | 29186 ft | 479 kts | 23° |
| 2026-05-07 19:32 | 41.53486 | 14.95745 | 29515 ft | 483 kts | 23° |
| 2026-05-07 19:32 | 41.56505 | 14.97747 | 29871 ft | 486 kts | 23° |
| 2026-05-07 19:32 | 41.59546 | 14.99765 | 30189 ft | 490 kts | 23° |
| 2026-05-07 19:32 | 41.62601 | 15.01795 | 30563 ft | 491 kts | 23° |
| 2026-05-07 19:33 | 41.65663 | 15.03835 | 30918 ft | 492 kts | 22° |
| 2026-05-07 19:33 | 41.68734 | 15.05882 | 31273 ft | 493 kts | 22° |
| 2026-05-07 19:33 | 41.71802 | 15.07929 | 31751 ft | 492 kts | 22° |
| 2026-05-07 19:33 | 41.74857 | 15.09969 | 32226 ft | 490 kts | 22° |
| 2026-05-07 19:34 | 41.77900 | 15.12003 | 32689 ft | 488 kts | 21° |
| 2026-05-07 19:34 | 41.80931 | 15.14031 | 33152 ft | 486 kts | 21° |
| 2026-05-07 19:34 | 41.83951 | 15.16053 | 33605 ft | 484 kts | 21° |
| 2026-05-07 19:34 | 41.86959 | 15.18071 | 34036 ft | 483 kts | 21° |
| 2026-05-07 19:35 | 41.89965 | 15.20087 | 34332 ft | 483 kts | 21° |
| 2026-05-07 19:35 | 41.92976 | 15.22107 | 34575 ft | 485 kts | 20° |
| 2026-05-07 19:35 | 41.95995 | 15.24135 | 34807 ft | 486 kts | 20° |
| 2026-05-07 19:35 | 41.99022 | 15.26172 | 35048 ft | 487 kts | 20° |
| 2026-05-07 19:36 | 42.02057 | 15.28216 | 35286 ft | 489 kts | 20° |
| 2026-05-07 19:36 | 42.05099 | 15.30268 | 35511 ft | 489 kts | 20° |
| 2026-05-07 19:36 | 42.08105 | 15.32298 | 35742 ft | 490 kts | 20° |
| 2026-05-07 19:36 | 42.11157 | 15.34361 | 35967 ft | 491 kts | 20° |
| 2026-05-07 19:37 | 42.14214 | 15.36429 | 36185 ft | 492 kts | 20° |
| 2026-05-07 19:37 | 42.17275 | 15.38502 | 36409 ft | 493 kts | 20° |
| 2026-05-07 19:37 | 42.20339 | 15.40579 | 36703 ft | 492 kts | 20° |
| 2026-05-07 19:37 | 42.23390 | 15.42651 | 37016 ft | 491 kts | 20° |
| 2026-05-07 19:38 | 42.26440 | 15.44724 | 37231 ft | 491 kts | 19° |
| 2026-05-07 19:38 | 42.29493 | 15.46800 | 37434 ft | 492 kts | 19° |
| 2026-05-07 19:38 | 42.32552 | 15.48883 | 37645 ft | 492 kts | 19° |
| 2026-05-07 19:38 | 42.35606 | 15.50965 | 37846 ft | 492 kts | 19° |
| 2026-05-07 19:39 | 42.38662 | 15.53050 | 38144 ft | 491 kts | 19° |
| 2026-05-07 19:39 | 42.41698 | 15.55128 | 38471 ft | 488 kts | 19° |
| 2026-05-07 19:39 | 42.44729 | 15.57201 | 38668 ft | 488 kts | 19° |
| 2026-05-07 19:39 | 42.47758 | 15.59274 | 38823 ft | 488 kts | 19° |
| 2026-05-07 19:40 | 42.50786 | 15.61348 | 38976 ft | 487 kts | 19° |
| 2026-05-07 19:40 | 42.53811 | 15.63423 | 39009 ft | 487 kts | 19° |
| 2026-05-07 19:40 | 42.59817 | 15.67554 | 39015 ft | 481 kts | 19° |
| 2026-05-07 19:41 | 42.65793 | 15.71667 | 39016 ft | 483 kts | 19° |
| 2026-05-07 19:41 | 42.71913 | 15.75170 | 39018 ft | 472 kts | 9° |
| 2026-05-07 19:42 | 42.78204 | 15.77331 | 39018 ft | 464 kts | 5° |
| 2026-05-07 19:42 | 42.84488 | 15.79386 | 39025 ft | 465 kts | 5° |
| 2026-05-07 19:43 | 42.90786 | 15.81440 | 39037 ft | 466 kts | 5° |
| 2026-05-07 19:43 | 42.97011 | 15.83463 | 39043 ft | 467 kts | 5° |
| 2026-05-07 19:44 | 43.03427 | 15.85555 | 39034 ft | 466 kts | 5° |
| 2026-05-07 19:44 | 43.09726 | 15.87614 | 39034 ft | 466 kts | 5° |
| 2026-05-07 19:45 | 43.16038 | 15.89677 | 39037 ft | 467 kts | 6° |
| 2026-05-07 19:45 | 43.22350 | 15.91749 | 39040 ft | 466 kts | 6° |
| 2026-05-07 19:46 | 43.28660 | 15.93825 | 39042 ft | 466 kts | 6° |
| 2026-05-07 19:46 | 43.34974 | 15.95903 | 39037 ft | 467 kts | 6° |
| 2026-05-07 19:47 | 43.41236 | 15.97971 | 39054 ft | 467 kts | 6° |
| 2026-05-07 19:47 | 43.47555 | 16.00063 | 39054 ft | 466 kts | 6° |
| 2026-05-07 19:48 | 43.53867 | 16.02156 | 39069 ft | 466 kts | 6° |
| 2026-05-07 19:48 | 43.60179 | 16.04253 | 39056 ft | 467 kts | 6° |
| 2026-05-07 19:49 | 43.66495 | 16.06358 | 39056 ft | 467 kts | 6° |
| 2026-05-07 19:49 | 43.72808 | 16.08465 | 39064 ft | 467 kts | 6° |
| 2026-05-07 19:50 | 43.79121 | 16.10577 | 39063 ft | 467 kts | 6° |
| 2026-05-07 19:50 | 43.85432 | 16.12693 | 39074 ft | 467 kts | 6° |
| 2026-05-07 19:51 | 43.91751 | 16.14815 | 39060 ft | 467 kts | 7° |
| 2026-05-07 19:51 | 43.98073 | 16.16945 | 39066 ft | 467 kts | 7° |
| 2026-05-07 19:52 | 44.04392 | 16.19077 | 39080 ft | 467 kts | 7° |
| 2026-05-07 19:52 | 44.10715 | 16.21214 | 39065 ft | 468 kts | 7° |
| 2026-05-07 19:53 | 44.16999 | 16.23355 | 39067 ft | 469 kts | 7° |
| 2026-05-07 19:53 | 44.23331 | 16.25511 | 39078 ft | 468 kts | 7° |
| 2026-05-07 19:54 | 44.29669 | 16.27656 | 39073 ft | 469 kts | 7° |
| 2026-05-07 19:54 | 44.36014 | 16.29817 | 39073 ft | 469 kts | 7° |
| 2026-05-07 19:55 | 44.42347 | 16.31982 | 39073 ft | 469 kts | 7° |
| 2026-05-07 19:55 | 44.48685 | 16.34153 | 39066 ft | 469 kts | 7° |
| 2026-05-07 19:56 | 44.55019 | 16.36329 | 39059 ft | 468 kts | 7° |
| 2026-05-07 19:56 | 44.61343 | 16.38507 | 39054 ft | 468 kts | 7° |
| 2026-05-07 19:57 | 44.67672 | 16.40691 | 39039 ft | 468 kts | 7° |
| 2026-05-07 19:57 | 44.73991 | 16.42876 | 39028 ft | 467 kts | 7° |
| 2026-05-07 19:58 | 44.80307 | 16.45065 | 39043 ft | 469 kts | 8° |
| 2026-05-07 19:58 | 44.86679 | 16.47277 | 39036 ft | 472 kts | 8° |
| 2026-05-07 19:59 | 44.93043 | 16.49497 | 39032 ft | 471 kts | 8° |
| 2026-05-07 19:59 | 44.99405 | 16.51718 | 39030 ft | 471 kts | 8° |
| 2026-05-07 20:00 | 45.05770 | 16.53945 | 39022 ft | 471 kts | 8° |
| 2026-05-07 20:00 | 45.12141 | 16.56179 | 39020 ft | 472 kts | 8° |
| 2026-05-07 20:01 | 45.18505 | 16.58415 | 39021 ft | 472 kts | 8° |
| 2026-05-07 20:01 | 45.24889 | 16.60663 | 39017 ft | 472 kts | 8° |
| 2026-05-07 20:02 | 45.31223 | 16.62900 | 39016 ft | 472 kts | 8° |
| 2026-05-07 20:02 | 45.37601 | 16.65157 | 39012 ft | 472 kts | 8° |
| 2026-05-07 20:03 | 45.43979 | 16.67419 | 39007 ft | 472 kts | 8° |
| 2026-05-07 20:03 | 45.50355 | 16.69686 | 39006 ft | 472 kts | 8° |
| 2026-05-07 20:04 | 45.56732 | 16.71958 | 39007 ft | 472 kts | 8° |
| 2026-05-07 20:04 | 45.63112 | 16.74237 | 39009 ft | 473 kts | 8° |
| 2026-05-07 20:05 | 45.69493 | 16.76522 | 39009 ft | 473 kts | 8° |
| 2026-05-07 20:05 | 45.75846 | 16.78802 | 39009 ft | 473 kts | 9° |
| 2026-05-07 20:06 | 45.82234 | 16.81100 | 39010 ft | 473 kts | 9° |
| 2026-05-07 20:06 | 45.88621 | 16.83403 | 39008 ft | 473 kts | 9° |
| 2026-05-07 20:07 | 45.95015 | 16.85713 | 39007 ft | 474 kts | 9° |
| 2026-05-07 20:07 | 46.00336 | 16.87641 | 39008 ft | 475 kts | 9° |
| 2026-05-07 20:08 | 46.06743 | 16.89968 | 39009 ft | 475 kts | 9° |
| 2026-05-07 20:08 | 46.13148 | 16.92297 | 39023 ft | 475 kts | 9° |
| 2026-05-07 20:09 | 46.19539 | 16.94817 | 39006 ft | 480 kts | 17° |
| 2026-05-07 20:10 | 46.27779 | 17.03129 | 38984 ft | 492 kts | 48° |
| 2026-05-07 20:10 | 46.32046 | 17.10881 | 38985 ft | 493 kts | 50° |
| 2026-05-07 20:11 | 46.36317 | 17.18661 | 38989 ft | 494 kts | 50° |
| 2026-05-07 20:11 | 46.40586 | 17.26470 | 38998 ft | 495 kts | 50° |
| 2026-05-07 20:12 | 46.44855 | 17.34311 | 39013 ft | 496 kts | 50° |
| 2026-05-07 20:12 | 46.49129 | 17.42184 | 39014 ft | 497 kts | 50° |
| 2026-05-07 20:13 | 46.53406 | 17.50085 | 39023 ft | 498 kts | 51° |
| 2026-05-07 20:13 | 46.57657 | 17.57960 | 39019 ft | 499 kts | 51° |
| 2026-05-07 20:14 | 46.61936 | 17.65910 | 39009 ft | 500 kts | 51° |
| 2026-05-07 20:14 | 46.66198 | 17.73852 | 39021 ft | 497 kts | 51° |
| 2026-05-07 20:15 | 46.70448 | 17.81793 | 39020 ft | 497 kts | 51° |
| 2026-05-07 20:15 | 46.74696 | 17.89753 | 38914 ft | 498 kts | 51° |
| 2026-05-07 20:15 | 46.76822 | 17.93745 | 38472 ft | 499 kts | 51° |
| 2026-05-07 20:16 | 46.78957 | 17.97760 | 37693 ft | 502 kts | 51° |
| 2026-05-07 20:16 | 46.81102 | 18.01797 | 36796 ft | 506 kts | 51° |
| 2026-05-07 20:16 | 46.83267 | 18.05879 | 35820 ft | 512 kts | 52° |
| 2026-05-07 20:16 | 46.85458 | 18.10016 | 34863 ft | 517 kts | 52° |
| 2026-05-07 20:17 | 46.87663 | 18.14184 | 33975 ft | 519 kts | 52° |
| 2026-05-07 20:17 | 46.89871 | 18.18367 | 33101 ft | 519 kts | 52° |
| 2026-05-07 20:17 | 46.92073 | 18.22545 | 32260 ft | 518 kts | 52° |
| 2026-05-07 20:17 | 46.94270 | 18.26720 | 31402 ft | 518 kts | 52° |
| 2026-05-07 20:18 | 46.96459 | 18.30883 | 30821 ft | 513 kts | 53° |
| 2026-05-07 20:18 | 46.98623 | 18.35003 | 30190 ft | 507 kts | 53° |
| 2026-05-07 20:18 | 47.00756 | 18.39073 | 29515 ft | 501 kts | 53° |
| 2026-05-07 20:18 | 47.02861 | 18.43096 | 28905 ft | 494 kts | 53° |
| 2026-05-07 20:19 | 47.04931 | 18.47062 | 28299 ft | 487 kts | 53° |
| 2026-05-07 20:19 | 47.06977 | 18.50984 | 27698 ft | 481 kts | 53° |
| 2026-05-07 20:19 | 47.08996 | 18.54863 | 27107 ft | 476 kts | 53° |
| 2026-05-07 20:19 | 47.10994 | 18.58703 | 26524 ft | 470 kts | 53° |
| 2026-05-07 20:20 | 47.12940 | 18.62451 | 25951 ft | 466 kts | 54° |
| 2026-05-07 20:20 | 47.14979 | 18.66110 | 25363 ft | 462 kts | 46° |
| 2026-05-07 20:20 | 47.17458 | 18.69068 | 24768 ft | 458 kts | 31° |
| 2026-05-07 20:20 | 47.20305 | 18.71078 | 24199 ft | 451 kts | 17° |
| 2026-05-07 20:21 | 47.23341 | 18.72018 | 23672 ft | 442 kts | 1° |
| 2026-05-07 20:21 | 47.26366 | 18.71830 | 23120 ft | 429 kts | 346° |
| 2026-05-07 20:21 | 47.29156 | 18.70543 | 22640 ft | 413 kts | 329° |
| 2026-05-07 20:21 | 47.31532 | 18.68315 | 22117 ft | 400 kts | 317° |
| 2026-05-07 20:22 | 47.33700 | 18.65799 | 21612 ft | 395 kts | 318° |
| 2026-05-07 20:22 | 47.35955 | 18.63506 | 21112 ft | 392 kts | 323° |
| 2026-05-07 20:22 | 47.38315 | 18.61513 | 20604 ft | 391 kts | 327° |
| 2026-05-07 20:22 | 47.40720 | 18.59681 | 20110 ft | 386 kts | 326° |
| 2026-05-07 20:23 | 47.42969 | 18.57565 | 19575 ft | 380 kts | 319° |
| 2026-05-07 20:23 | 47.45050 | 18.55214 | 19079 ft | 375 kts | 317° |
| 2026-05-07 20:23 | 47.47125 | 18.52888 | 18579 ft | 373 kts | 318° |
| 2026-05-07 20:23 | 47.49185 | 18.50587 | 18052 ft | 370 kts | 318° |
| 2026-05-07 20:24 | 47.51224 | 18.48303 | 17544 ft | 365 kts | 318° |
| 2026-05-07 20:24 | 47.53234 | 18.46044 | 17054 ft | 361 kts | 318° |
| 2026-05-07 20:24 | 47.55186 | 18.43758 | 16569 ft | 355 kts | 314° |
| 2026-05-07 20:24 | 47.56898 | 18.41189 | 16094 ft | 347 kts | 306° |
| 2026-05-07 20:25 | 47.58390 | 18.38417 | 15628 ft | 342 kts | 304° |
| 2026-05-07 20:25 | 47.59859 | 18.35675 | 15174 ft | 339 kts | 304° |
| 2026-05-07 20:25 | 47.61325 | 18.32958 | 14707 ft | 336 kts | 305° |
| 2026-05-07 20:25 | 47.62775 | 18.30266 | 14242 ft | 333 kts | 306° |
| 2026-05-07 20:26 | 47.64214 | 18.27586 | 13790 ft | 330 kts | 306° |
| 2026-05-07 20:26 | 47.65637 | 18.24936 | 13323 ft | 327 kts | 306° |
| 2026-05-07 20:26 | 47.67043 | 18.22316 | 12865 ft | 322 kts | 306° |
| 2026-05-07 20:26 | 47.68431 | 18.19727 | 12438 ft | 319 kts | 306° |
| 2026-05-07 20:27 | 47.69803 | 18.17163 | 12006 ft | 315 kts | 306° |
| 2026-05-07 20:27 | 47.71168 | 18.14608 | 11581 ft | 325 kts | 306° |
| 2026-05-07 20:27 | 47.72631 | 18.11856 | 11109 ft | 351 kts | 306° |
| 2026-05-07 20:27 | 47.74168 | 18.08966 | 10626 ft | 360 kts | 306° |
| 2026-05-07 20:28 | 47.75637 | 18.06013 | 10473 ft | 349 kts | 301° |
| 2026-05-07 20:28 | 47.76779 | 18.02939 | 10318 ft | 331 kts | 295° |
| 2026-05-07 20:28 | 47.77787 | 17.99988 | 10121 ft | 310 kts | 295° |
| 2026-05-07 20:28 | 47.78738 | 17.97233 | 9907 ft | 291 kts | 295° |
| 2026-05-07 20:29 | 47.79656 | 17.94572 | 9494 ft | 287 kts | 295° |
| 2026-05-07 20:29 | 47.80562 | 17.91937 | 9106 ft | 284 kts | 295° |
| 2026-05-07 20:29 | 47.81445 | 17.89366 | 8867 ft | 276 kts | 295° |
| 2026-05-07 20:29 | 47.82310 | 17.86845 | 8545 ft | 272 kts | 295° |
| 2026-05-07 20:30 | 47.83160 | 17.84360 | 8297 ft | 269 kts | 295° |
| 2026-05-07 20:30 | 47.84034 | 17.81803 | 8171 ft | 280 kts | 295° |
| 2026-05-07 20:30 | 47.84913 | 17.79227 | 7895 ft | 279 kts | 296° |
| 2026-05-07 20:30 | 47.85791 | 17.76658 | 7527 ft | 278 kts | 296° |
| 2026-05-07 20:31 | 47.86661 | 17.74107 | 7167 ft | 275 kts | 296° |
| 2026-05-07 20:31 | 47.87522 | 17.71579 | 6804 ft | 273 kts | 296° |
| 2026-05-07 20:31 | 47.88376 | 17.69070 | 6447 ft | 270 kts | 296° |
| 2026-05-07 20:31 | 47.89220 | 17.66590 | 6182 ft | 264 kts | 296° |
| 2026-05-07 20:32 | 47.90019 | 17.64241 | 6071 ft | 252 kts | 296° |
| 2026-05-07 20:32 | 47.90816 | 17.61976 | 5914 ft | 243 kts | 301° |
| 2026-05-07 20:32 | 47.91838 | 17.60000 | 5682 ft | 237 kts | 315° |
| 2026-05-07 20:32 | 47.92986 | 17.58288 | 5460 ft | 232 kts | 315° |
| 2026-05-07 20:33 | 47.94116 | 17.56577 | 5173 ft | 231 kts | 314° |
| 2026-05-07 20:33 | 47.95231 | 17.54872 | 4884 ft | 229 kts | 314° |
| 2026-05-07 20:33 | 47.96339 | 17.53173 | 4596 ft | 228 kts | 314° |
| 2026-05-07 20:33 | 47.97438 | 17.51485 | 4316 ft | 226 kts | 314° |
| 2026-05-07 20:34 | 47.98524 | 17.49817 | 4044 ft | 224 kts | 313° |
| 2026-05-07 20:34 | 47.99608 | 17.48150 | 3771 ft | 223 kts | 313° |
| 2026-05-07 20:34 | 48.00683 | 17.46498 | 3503 ft | 221 kts | 313° |
| 2026-05-07 20:34 | 48.01752 | 17.44855 | 3227 ft | 220 kts | 313° |
| 2026-05-07 20:35 | 48.02808 | 17.43233 | 2961 ft | 219 kts | 313° |
| 2026-05-07 20:35 | 48.03867 | 17.41602 | 2702 ft | 218 kts | 313° |
| 2026-05-07 20:35 | 48.04917 | 17.39984 | 2522 ft | 216 kts | 313° |
| 2026-05-07 20:35 | 48.05949 | 17.38398 | 2491 ft | 207 kts | 313° |
| 2026-05-07 20:36 | 48.06936 | 17.36881 | 2498 ft | 205 kts | 313° |
| 2026-05-07 20:36 | 48.07897 | 17.35393 | 2491 ft | 191 kts | 313° |
| 2026-05-07 20:36 | 48.08787 | 17.34012 | 2446 ft | 179 kts | 313° |
| 2026-05-07 20:36 | 48.09610 | 17.32738 | 2231 ft | 163 kts | 312° |
| 2026-05-07 20:37 | 48.10362 | 17.31573 | 2014 ft | 146 kts | 312° |
| 2026-05-07 20:37 | 48.11026 | 17.30545 | 1809 ft | 134 kts | 312° |
| 2026-05-07 20:37 | 48.11696 | 17.29503 | 1647 ft | 143 kts | 312° |
| 2026-05-07 20:37 | 48.12397 | 17.28418 | 1658 ft | 156 kts | 312° |
| 2026-05-07 20:38 | 48.13130 | 17.27279 | 1305 ft | 147 kts | 311° |
| 2026-05-07 20:38 | 48.13823 | 17.26218 | 996 ft | 137 kts | 311° |
| 2026-05-07 20:38 | 48.14463 | 17.25257 | 804 ft | 126 kts | 310° |
| 2026-05-07 20:38 | 48.15086 | 17.24303 | 658 ft | 128 kts | 309° |
| 2026-05-07 20:39 | 48.15706 | 17.23299 | 485 ft | 134 kts | 308° |
| 2026-05-07 20:39 | 48.16301 | 17.22368 | 442 ft | 101 kts | 314° |
| 2026-05-07 20:39 | 48.16654 | 17.21828 | 434 ft | 44 kts | 315° |
| 2026-05-07 20:39 | 48.16823 | 17.21564 | 440 ft | 33 kts | 314° |
| 2026-05-07 20:40 | 48.16971 | 17.21332 | 431 ft | 28 kts | 314° |
| 2026-05-07 20:40 | 48.17103 | 17.21128 | 434 ft | 26 kts | 314° |
| 2026-05-07 20:40 | 48.17102 | 17.20970 | 431 ft | 15 kts | 225° |
| 2026-05-07 20:40 | 48.17034 | 17.20865 | 440 ft | 13 kts | 226° |
| 2026-05-07 20:41 | 48.16970 | 17.20765 | 432 ft | 13 kts | 225° |
| 2026-05-07 20:41 | 48.16907 | 17.20667 | 439 ft | 13 kts | 227° |
| 2026-05-07 20:41 | 48.16844 | 17.20566 | 436 ft | 14 kts | 226° |
| 2026-05-07 20:41 | 48.16773 | 17.20456 | 430 ft | 16 kts | 226° |
| 2026-05-07 20:42 | 48.16730 | 17.20340 | 431 ft | 11 kts | 304° |
| 2026-05-07 20:42 | 48.16794 | 17.20243 | 436 ft | 15 kts | 315° |
| 2026-05-07 20:42 | 48.16861 | 17.20124 | 442 ft | 11 kts | 286° |
| 2026-05-07 20:42 | 48.16892 | 17.20055 | 440 ft | 1 kts | 313° |